createdAt,value
2022-10-03T00:01:36.090Z,4.82
2022-10-03T00:04:20.856Z,6.70
2022-10-03T00:07:04.164Z,4.75
2022-10-03T00:09:42.922Z,4.82
2022-10-03T00:12:28.340Z,4.50
2022-10-03T00:15:04.195Z,5.78
2022-10-03T00:17:50.968Z,6.38
2022-10-03T00:20:20.737Z,5.53
2022-10-03T00:23:16.053Z,6.78
2022-10-03T00:26:26.884Z,6.82
2022-10-03T00:29:05.913Z,4.60
2022-10-03T00:31:47.460Z,10.23
2022-10-03T00:34:41.619Z,3.63
2022-10-03T00:37:23.434Z,5.65
2022-10-03T00:39:50.382Z,4.72
2022-10-03T00:42:23.981Z,6.10
2022-10-03T00:48:00.614Z,5.65
2022-10-03T00:50:48.808Z,6.32
2022-10-03T00:53:43.460Z,4.70
2022-10-03T00:56:37.166Z,4.97
2022-10-03T00:59:12.356Z,4.43
2022-10-03T01:01:50.122Z,4.72
2022-10-03T01:04:35.413Z,7.18
2022-10-03T01:07:11.936Z,5.63
2022-10-03T01:10:09.552Z,9.35
2022-10-03T01:13:10.281Z,5.60
2022-10-03T01:16:01.411Z,6.80
2022-10-03T01:18:49.298Z,13.02
2022-10-03T01:21:59.830Z,8.77
2022-10-03T01:24:41.774Z,5.50
2022-10-03T01:27:14.541Z,10.38
2022-10-03T01:30:08.707Z,4.90
2022-10-03T01:32:52.995Z,12.38
2022-10-03T01:35:38.649Z,6.22
2022-10-03T01:38:21.311Z,10.02
2022-10-03T01:41:09.292Z,9.63
2022-10-03T01:43:55.670Z,19.33
2022-10-03T01:46:34.167Z,7.05
2022-10-03T01:49:19.616Z,6.20
2022-10-03T01:52:00.204Z,5.97
2022-10-03T01:54:51.999Z,7.28
2022-10-03T01:57:22.136Z,7.75
2022-10-03T02:00:22.467Z,9.13
2022-10-03T02:03:11.438Z,8.55
2022-10-03T02:06:02.542Z,8.60
2022-10-03T02:08:51.968Z,7.88
2022-10-03T02:11:47.779Z,8.88
2022-10-03T02:14:38.705Z,8.25
2022-10-03T02:17:30.562Z,9.50
2022-10-03T02:20:01.865Z,8.13
2022-10-03T02:22:44.552Z,9.43
2022-10-03T02:25:36.216Z,10.85
2022-10-03T02:28:24.709Z,8.02
2022-10-03T02:31:21.009Z,10.00
2022-10-03T02:34:16.350Z,10.95
2022-10-03T02:36:48.698Z,7.47
2022-10-03T02:39:52.353Z,9.18
2022-10-03T02:42:37.993Z,9.48
2022-10-03T02:45:23.561Z,12.82
2022-10-03T02:48:30.544Z,10.20
2022-10-03T02:51:10.167Z,8.05
2022-10-03T02:54:15.138Z,10.10
2022-10-03T02:56:56.497Z,9.60
2022-10-03T02:59:47.339Z,7.47
2022-10-03T03:02:32.684Z,5.78
2022-10-03T03:05:43.987Z,8.13
2022-10-03T03:08:22.380Z,9.32
2022-10-03T03:11:10.923Z,8.05
2022-10-03T03:13:55.977Z,10.52
2022-10-03T03:16:38.776Z,7.22
2022-10-03T03:19:28.308Z,9.57
2022-10-03T03:22:16.405Z,9.70
2022-10-03T03:25:10.470Z,8.23
2022-10-03T03:28:02.221Z,8.25
2022-10-03T03:31:04.385Z,10.77
2022-10-03T03:33:58.310Z,8.15
2022-10-03T03:36:27.846Z,7.65
2022-10-03T03:39:00.590Z,11.13
2022-10-03T03:42:12.336Z,37.22
2022-10-03T03:45:00.495Z,60.15
2022-10-03T03:47:57.572Z,44.33
2022-10-03T03:51:02.660Z,19.67
2022-10-03T03:53:38.291Z,9.48
2022-10-03T03:56:15.472Z,5.90
2022-10-03T03:58:47.994Z,28.23
2022-10-03T04:01:51.710Z,22.27
2022-10-03T04:04:33.302Z,20.45
2022-10-03T04:07:33.415Z,21.05
2022-10-03T04:10:17.784Z,23.27
2022-10-03T04:13:09.958Z,69.35
2022-10-03T04:16:12.108Z,48.13
2022-10-03T04:18:59.810Z,27.80
2022-10-03T04:22:04.951Z,27.55
2022-10-03T04:24:37.002Z,17.92
2022-10-03T04:30:06.949Z,27.13
2022-10-03T04:32:42.625Z,42.65
2022-10-03T04:35:09.400Z,50.65
2022-10-03T04:38:23.928Z,19.88
2022-10-03T04:40:59.586Z,35.55
2022-10-03T04:43:48.395Z,85.45
2022-10-03T04:46:56.831Z,63.58
2022-10-03T04:49:47.795Z,44.50
2022-10-03T04:52:37.275Z,69.72
2022-10-03T04:55:23.301Z,42.47
2022-10-03T04:58:05.435Z,36.65
2022-10-03T05:03:26.834Z,24.92
2022-10-03T05:05:56.627Z,13.35
2022-10-03T05:08:55.973Z,10.15
2022-10-03T05:11:50.786Z,18.10
2022-10-03T05:14:20.649Z,14.45
2022-10-03T05:17:17.543Z,17.15
2022-10-03T05:20:14.608Z,13.68
2022-10-03T05:23:15.524Z,29.00
2022-10-03T05:26:43.162Z,24.05
2022-10-03T05:29:05.541Z,29.10
2022-10-03T05:31:38.175Z,22.70
2022-10-03T05:34:28.248Z,12.43
2022-10-03T05:37:14.336Z,15.38
2022-10-03T05:39:55.113Z,16.10
2022-10-03T05:42:39.826Z,13.27
2022-10-03T05:45:39.388Z,17.83
2022-10-03T05:48:06.189Z,14.75
2022-10-03T05:51:34.149Z,16.00
2022-10-03T05:54:31.947Z,9.25
2022-10-03T05:57:13.808Z,18.90
2022-10-03T06:00:02.330Z,30.70
2022-10-03T06:02:40.777Z,24.52
2022-10-03T06:05:36.944Z,25.83
2022-10-03T06:08:06.683Z,17.95
2022-10-03T06:10:58.523Z,19.25
2022-10-03T06:13:52.592Z,13.98
2022-10-03T06:16:31.544Z,16.10
2022-10-03T06:19:06.401Z,13.05
2022-10-03T06:22:04.014Z,15.27
2022-10-03T06:24:39.665Z,10.35
2022-10-03T06:27:25.279Z,11.35
2022-10-03T06:30:12.203Z,10.68
2022-10-03T06:32:48.022Z,11.73
2022-10-03T06:35:36.646Z,12.98
2022-10-03T06:38:23.991Z,9.32
2022-10-03T06:41:17.154Z,10.13
2022-10-03T06:47:36.609Z,8.95
2022-10-03T06:50:24.890Z,10.10
2022-10-03T06:53:39.253Z,8.82
2022-10-03T06:56:19.477Z,8.75
2022-10-03T06:58:49.105Z,9.60
2022-10-03T07:01:46.498Z,12.85
2022-10-03T07:04:28.310Z,10.75
2022-10-03T07:07:28.819Z,10.70
2022-10-03T07:10:10.495Z,12.43
2022-10-03T07:13:18.681Z,9.95
2022-10-03T07:16:25.917Z,10.80
2022-10-03T07:19:10.278Z,15.38
2022-10-03T07:21:55.575Z,14.35
2022-10-03T07:24:55.657Z,9.93
2022-10-03T07:27:53.654Z,17.15
2022-10-03T07:30:25.162Z,11.48
2022-10-03T07:33:22.124Z,14.60
2022-10-03T07:36:44.858Z,22.88
2022-10-03T07:39:32.795Z,17.70
2022-10-03T07:42:35.286Z,9.85
2022-10-03T07:45:23.964Z,13.88
2022-10-03T07:47:57.772Z,11.40
2022-10-03T07:50:53.302Z,11.40
2022-10-03T07:53:28.902Z,13.88
2022-10-03T07:56:23.187Z,11.23
2022-10-03T07:59:11.710Z,14.77
2022-10-03T08:02:07.208Z,14.32
2022-10-03T08:04:52.817Z,14.27
2022-10-03T08:07:43.783Z,12.30
2022-10-03T08:10:19.181Z,14.32
2022-10-03T08:13:07.749Z,13.15
2022-10-03T08:16:10.295Z,17.75
2022-10-03T08:21:28.384Z,17.45
2022-10-03T08:24:23.258Z,15.00
2022-10-03T08:26:56.148Z,21.33
2022-10-03T08:29:28.784Z,14.32
2022-10-03T08:31:58.484Z,12.30
2022-10-03T08:34:59.548Z,15.13
2022-10-03T08:37:35.643Z,11.68
2022-10-03T08:40:33.114Z,11.73
2022-10-03T08:43:18.339Z,11.25
2022-10-03T08:46:15.297Z,11.02
2022-10-03T08:48:44.918Z,11.25
2022-10-03T08:51:31.335Z,13.45
2022-10-03T08:54:16.222Z,10.48
2022-10-03T08:57:20.643Z,10.57
2022-10-03T09:00:02.589Z,12.70
2022-10-03T09:02:58.061Z,13.77
2022-10-03T09:05:58.892Z,9.68
2022-10-03T09:09:07.854Z,10.90
2022-10-03T09:11:54.431Z,13.95
2022-10-03T09:14:34.246Z,9.90
2022-10-03T09:17:23.514Z,10.43
2022-10-03T09:20:12.317Z,12.05
2022-10-03T09:22:54.425Z,10.50
2022-10-03T09:29:06.373Z,12.07
2022-10-03T09:31:57.554Z,8.02
2022-10-03T09:34:42.501Z,10.07
2022-10-03T09:37:46.793Z,13.45
2022-10-03T09:40:35.220Z,11.05
2022-10-03T09:43:26.892Z,11.48
2022-10-03T09:46:20.732Z,9.32
2022-10-03T09:49:06.025Z,8.27
2022-10-03T09:52:05.539Z,10.27
2022-10-03T09:54:35.387Z,9.30
2022-10-03T09:57:42.170Z,9.88
2022-10-03T10:00:29.261Z,12.85
2022-10-03T10:03:01.981Z,10.23
2022-10-03T10:05:46.984Z,7.95
2022-10-03T10:08:36.670Z,12.25
2022-10-03T10:11:35.420Z,8.25
2022-10-03T10:14:18.170Z,7.30
2022-10-03T10:17:38.530Z,7.15
2022-10-03T10:20:49.096Z,8.45
2022-10-03T10:23:28.585Z,8.73
2022-10-03T10:26:00.862Z,8.48
2022-10-03T10:29:08.890Z,8.57
2022-10-03T10:31:59.550Z,9.02
2022-10-03T10:34:48.211Z,9.30
2022-10-03T10:37:19.152Z,9.45
2022-10-03T10:40:28.589Z,7.93
2022-10-03T10:43:22.373Z,7.68
2022-10-03T10:46:10.057Z,7.28
2022-10-03T10:49:10.788Z,6.55
2022-10-03T10:51:46.071Z,6.93
2022-10-03T10:55:04.279Z,9.80
2022-10-03T10:58:00.826Z,10.02
2022-10-03T11:01:16.617Z,9.50
2022-10-03T11:03:58.330Z,7.47
2022-10-03T11:06:53.562Z,9.77
2022-10-03T11:09:44.545Z,8.30
2022-10-03T11:12:38.145Z,5.65
2022-10-03T11:15:47.660Z,6.13
2022-10-03T11:18:46.002Z,8.23
2022-10-03T11:21:43.526Z,6.45
2022-10-03T11:24:29.090Z,9.57
2022-10-03T11:27:01.975Z,7.10
2022-10-03T11:29:56.693Z,6.82
2022-10-03T11:32:47.855Z,6.95
2022-10-03T11:35:46.999Z,8.52
2022-10-03T11:38:34.044Z,7.68
2022-10-03T11:41:22.477Z,6.55
2022-10-03T11:44:32.041Z,6.88
2022-10-03T11:47:27.742Z,10.00
2022-10-03T11:50:14.761Z,6.55
2022-10-03T11:53:03.588Z,7.75
2022-10-03T11:55:34.033Z,6.18
2022-10-03T11:58:42.514Z,11.05
2022-10-03T12:01:37.429Z,4.47
2022-10-03T12:04:41.430Z,4.72
2022-10-03T12:08:04.696Z,4.63
2022-10-03T12:10:45.771Z,5.13
2022-10-03T12:14:11.513Z,6.60
2022-10-03T12:16:47.932Z,7.35
2022-10-03T12:19:31.015Z,5.55
2022-10-03T12:22:05.508Z,8.93
2022-10-03T12:24:36.666Z,8.50
2022-10-03T12:27:13.419Z,5.38
2022-10-03T12:29:46.074Z,7.97
2022-10-03T12:32:25.859Z,8.48
2022-10-03T12:35:07.800Z,12.05
2022-10-03T12:38:05.411Z,10.27
2022-10-03T12:40:40.358Z,7.72
2022-10-03T12:43:29.553Z,7.80
2022-10-03T12:48:47.961Z,5.68
2022-10-03T12:51:53.129Z,6.57
2022-10-03T12:54:36.886Z,7.82
2022-10-03T12:57:45.194Z,7.43
2022-10-03T13:00:27.789Z,6.28
2022-10-03T13:03:11.127Z,8.40
2022-10-03T13:05:55.847Z,7.97
2022-10-03T13:08:40.628Z,8.20
2022-10-03T13:11:32.871Z,7.05
2022-10-03T13:17:17.498Z,6.30
2022-10-03T13:20:06.590Z,6.57
2022-10-03T13:22:51.334Z,7.03
2022-10-03T13:25:37.878Z,5.88
2022-10-03T13:28:16.188Z,7.30
2022-10-03T13:30:47.203Z,10.00
2022-10-03T13:33:22.206Z,7.90
2022-10-03T13:35:59.556Z,8.88
2022-10-03T13:38:51.233Z,8.23
2022-10-03T13:41:29.991Z,4.50
2022-10-03T13:43:59.638Z,9.50
2022-10-03T13:46:37.352Z,5.30
2022-10-03T13:49:14.504Z,4.82
2022-10-03T13:51:53.069Z,4.82
2022-10-03T13:54:55.684Z,4.60
2022-10-03T13:57:30.048Z,3.35
2022-10-03T14:00:12.015Z,5.03
2022-10-03T14:02:59.921Z,7.68
2022-10-03T14:06:04.070Z,4.00
2022-10-03T14:08:30.793Z,8.55
2022-10-03T14:11:16.946Z,8.98
2022-10-03T14:14:10.435Z,7.78
2022-10-03T14:16:50.190Z,5.15
2022-10-03T14:19:22.804Z,10.55
2022-10-03T14:22:04.963Z,9.35
2022-10-03T14:24:53.333Z,7.88
2022-10-03T14:27:52.866Z,5.70
2022-10-03T14:30:24.232Z,9.48
2022-10-03T14:33:17.213Z,5.90
2022-10-03T14:35:51.910Z,5.55
2022-10-03T14:38:55.555Z,5.82
2022-10-03T14:41:30.416Z,9.63
2022-10-03T14:44:00.199Z,5.18
2022-10-03T14:46:35.472Z,8.95
2022-10-03T14:49:05.591Z,3.97
2022-10-03T14:51:40.793Z,3.58
2022-10-03T14:54:30.145Z,6.97
2022-10-03T14:56:58.915Z,5.82
2022-10-03T14:59:26.732Z,10.73
2022-10-03T15:01:56.453Z,5.15
2022-10-03T15:04:34.957Z,6.38
2022-10-03T15:07:02.972Z,5.90
2022-10-03T15:09:39.023Z,6.38
2022-10-03T15:12:12.886Z,4.72
2022-10-03T15:14:45.754Z,5.00
2022-10-03T15:17:24.303Z,5.60
2022-10-03T15:19:59.574Z,4.03
2022-10-03T15:22:31.298Z,5.03
2022-10-03T15:25:03.599Z,7.38
2022-10-03T15:27:30.785Z,7.13
2022-10-03T15:30:00.858Z,6.55
2022-10-03T15:32:49.820Z,7.30
2022-10-03T15:35:27.872Z,6.65
2022-10-03T15:37:58.932Z,4.40
2022-10-03T15:40:39.211Z,4.30
2022-10-03T15:43:28.466Z,3.17
2022-10-03T15:45:57.731Z,6.32
2022-10-03T15:48:28.163Z,7.85
2022-10-03T15:50:58.988Z,12.48
2022-10-03T15:53:48.226Z,6.10
2022-10-03T15:56:26.482Z,7.13
2022-10-03T15:58:56.802Z,6.93
2022-10-03T16:01:28.724Z,10.77
2022-10-03T16:06:47.680Z,6.20
2022-10-03T16:09:33.937Z,7.97
2022-10-03T16:12:17.781Z,6.75
2022-10-03T16:15:16.969Z,6.95
2022-10-03T16:17:51.182Z,10.65
2022-10-03T16:20:18.016Z,7.65
2022-10-03T16:22:57.848Z,8.85
2022-10-03T16:25:28.512Z,5.57
2022-10-03T16:28:02.201Z,4.63
2022-10-03T16:30:37.519Z,5.63
2022-10-03T16:33:09.967Z,8.05
2022-10-03T16:35:40.492Z,5.82
2022-10-03T16:38:37.850Z,5.53
2022-10-03T16:41:27.175Z,5.85
2022-10-03T16:44:09.959Z,8.05
2022-10-03T16:46:43.775Z,6.65
2022-10-03T16:49:42.670Z,7.53
2022-10-03T16:52:12.698Z,6.05
2022-10-03T16:54:41.277Z,9.40
2022-10-03T16:57:21.638Z,10.25
2022-10-03T16:59:52.148Z,8.38
2022-10-03T17:02:24.533Z,6.38
2022-10-03T17:05:07.621Z,7.68
2022-10-03T17:07:44.106Z,8.23
2022-10-03T17:10:35.902Z,8.45
2022-10-03T17:13:16.678Z,7.03
2022-10-03T17:15:55.971Z,9.15
2022-10-03T17:18:31.114Z,8.50
2022-10-03T17:21:27.176Z,5.70
2022-10-03T17:24:34.480Z,8.40
2022-10-03T17:27:07.693Z,9.63
2022-10-03T17:29:44.058Z,9.60
2022-10-03T17:32:39.998Z,4.55
2022-10-03T17:35:15.448Z,9.85
2022-10-03T17:38:30.435Z,8.82
2022-10-03T17:41:02.498Z,7.97
2022-10-03T17:43:48.035Z,7.53
2022-10-03T17:46:26.146Z,7.85
2022-10-03T17:49:23.981Z,7.07
2022-10-03T17:51:52.664Z,7.90
2022-10-03T17:54:29.472Z,9.57
2022-10-03T17:57:18.476Z,9.68
2022-10-03T17:59:54.938Z,9.95
2022-10-03T18:02:32.747Z,8.73
2022-10-03T18:05:24.104Z,9.65
2022-10-03T18:07:54.291Z,9.75
2022-10-03T18:10:33.683Z,13.18
2022-10-03T18:13:02.182Z,12.88
2022-10-03T18:15:48.073Z,9.25
2022-10-03T18:18:54.775Z,10.52
2022-10-03T18:21:36.032Z,8.65
2022-10-03T18:24:21.374Z,9.57
2022-10-03T18:27:07.565Z,10.32
2022-10-03T18:29:51.099Z,7.50
2022-10-03T18:32:25.457Z,50.53
2022-10-03T18:35:12.997Z,47.88
2022-10-03T18:37:39.694Z,52.47
2022-10-03T18:40:14.643Z,43.30
2022-10-03T18:42:44.926Z,30.63
2022-10-03T18:48:42.824Z,26.20
2022-10-03T18:51:24.952Z,19.73
2022-10-03T18:54:17.929Z,13.52
2022-10-03T18:56:47.633Z,11.32
2022-10-03T18:59:30.294Z,14.82
2022-10-03T19:02:01.810Z,15.55
2022-10-03T19:04:44.541Z,8.45
2022-10-03T19:07:21.849Z,8.95
2022-10-03T19:10:14.313Z,9.07
2022-10-03T19:15:38.311Z,8.57
2022-10-03T19:18:27.934Z,8.60
2022-10-03T19:20:59.242Z,25.25
2022-10-03T19:23:35.058Z,44.58
2022-10-03T19:26:09.343Z,49.65
2022-10-03T19:28:39.984Z,63.25
2022-10-03T19:31:15.635Z,54.22
2022-10-03T19:33:47.314Z,49.25
2022-10-03T19:36:21.071Z,46.30
2022-10-03T19:38:49.132Z,39.55
2022-10-03T19:41:37.526Z,37.70
2022-10-03T19:44:20.328Z,38.42
2022-10-03T19:47:15.368Z,42.55
2022-10-03T19:49:56.875Z,45.15
2022-10-03T19:52:34.870Z,49.97
2022-10-03T19:55:10.854Z,38.88
2022-10-03T19:57:37.616Z,25.70
2022-10-03T20:00:15.604Z,21.08
2022-10-03T20:02:44.342Z,23.92
2022-10-03T20:05:27.303Z,22.88
2022-10-03T20:08:22.924Z,18.88
2022-10-03T20:11:05.067Z,18.42
2022-10-03T20:13:32.118Z,15.63
2022-10-03T20:15:59.353Z,13.77
2022-10-03T20:18:33.521Z,13.07
2022-10-03T20:21:02.915Z,15.63
2022-10-03T20:23:33.226Z,17.38
2022-10-03T20:26:16.204Z,15.38
2022-10-03T20:29:11.964Z,12.88
2022-10-03T20:31:39.643Z,17.00
2022-10-03T20:34:21.436Z,12.50
2022-10-03T20:36:52.303Z,14.90
2022-10-03T20:39:23.670Z,13.50
2022-10-03T20:41:57.294Z,12.98
2022-10-03T20:45:01.967Z,12.63
2022-10-03T20:47:31.698Z,13.80
2022-10-03T20:50:27.116Z,11.40
2022-10-03T20:53:00.600Z,14.10
2022-10-03T20:55:55.193Z,11.38
2022-10-03T20:58:51.061Z,13.55
2022-10-03T21:01:22.542Z,10.98
2022-10-03T21:04:27.758Z,15.20
2022-10-03T21:07:19.109Z,12.18
2022-10-03T21:10:01.465Z,14.32
2022-10-03T21:15:21.706Z,10.32
2022-10-03T21:17:49.930Z,14.82
2022-10-03T21:20:27.057Z,10.57
2022-10-03T21:22:59.554Z,13.60
2022-10-03T21:25:35.351Z,11.00
2022-10-03T21:28:04.445Z,8.07
2022-10-03T21:30:37.213Z,14.00
2022-10-03T21:33:31.014Z,9.38
2022-10-03T21:36:11.104Z,9.77
2022-10-03T21:38:43.094Z,11.95
2022-10-03T21:41:35.570Z,11.13
2022-10-03T21:46:54.128Z,10.63
2022-10-03T21:49:55.466Z,11.40
2022-10-03T21:52:43.581Z,13.13
2022-10-03T21:55:51.338Z,14.77
2022-10-03T21:58:45.359Z,10.25
2022-10-03T22:01:19.915Z,12.23
2022-10-03T22:03:58.594Z,12.27
2022-10-03T22:06:28.852Z,17.27
2022-10-03T22:09:03.491Z,15.18
2022-10-03T22:11:42.882Z,13.80
2022-10-03T22:14:37.306Z,15.55
2022-10-03T22:17:15.292Z,19.08
2022-10-03T22:19:58.228Z,14.90
2022-10-03T22:22:24.991Z,17.77
2022-10-03T22:25:31.294Z,15.80
2022-10-03T22:28:26.072Z,11.88
2022-10-03T22:31:43.177Z,15.38
2022-10-03T22:34:32.028Z,11.52
2022-10-03T22:37:00.224Z,13.93
2022-10-03T22:39:29.908Z,12.35
2022-10-03T22:42:03.334Z,8.73
2022-10-03T22:44:33.101Z,13.98
2022-10-03T22:47:06.560Z,11.82
2022-10-03T22:49:40.518Z,8.70
2022-10-03T22:52:24.415Z,11.55
2022-10-03T23:00:40.069Z,8.32
2022-10-03T23:06:33.725Z,9.80
2022-10-03T23:09:38.834Z,8.63
2022-10-03T23:12:07.202Z,10.45
2022-10-03T23:14:38.840Z,9.18
2022-10-03T23:17:24.463Z,9.35
2022-10-03T23:20:21.402Z,7.45
2022-10-03T23:22:55.076Z,11.63
2022-10-03T23:25:31.612Z,10.40
2022-10-03T23:28:18.635Z,10.85
2022-10-03T23:30:55.247Z,10.85
2022-10-03T23:33:38.342Z,9.55
2022-10-03T23:36:23.446Z,12.43
2022-10-03T23:38:53.637Z,9.77
2022-10-03T23:41:46.683Z,9.77
2022-10-03T23:44:58.028Z,10.18
2022-10-03T23:47:32.699Z,9.73
2022-10-03T23:50:00.562Z,13.32
2022-10-03T23:52:31.006Z,9.70
2022-10-03T23:55:02.526Z,10.20
2022-10-03T23:57:37.521Z,12.60
